createdAt,value
2023-05-19T00:01:33.892Z,97248.78
2023-05-19T00:04:00.271Z,97244.22
2023-05-19T00:06:26.691Z,97247.72
2023-05-19T00:08:53.131Z,97247.81
2023-05-19T00:11:19.535Z,97249.38
2023-05-19T00:13:45.945Z,97243.75
2023-05-19T00:16:12.407Z,97248.94
2023-05-19T00:18:38.909Z,97243.75
2023-05-19T00:21:05.380Z,97237.31
2023-05-19T00:23:31.790Z,97238.94
2023-05-19T00:25:58.195Z,97242.72
2023-05-19T00:28:24.595Z,97236.69
2023-05-19T00:30:50.985Z,97231.66
2023-05-19T00:33:17.361Z,97232.13
2023-05-19T00:35:43.724Z,97232.56
2023-05-19T00:38:10.134Z,97233.97
2023-05-19T00:40:36.543Z,97234.22
2023-05-19T00:43:02.924Z,97239.25
2023-05-19T00:45:29.385Z,97230.69
2023-05-19T00:47:55.847Z,97232.94
2023-05-19T00:50:22.291Z,97233.84
2023-05-19T00:52:48.660Z,97233.63
2023-05-19T00:55:15.028Z,97231.97
2023-05-19T00:57:41.430Z,97227.81
2023-05-19T01:00:07.812Z,97234.13
2023-05-19T01:02:34.354Z,97228.28
2023-05-19T01:05:00.807Z,97232.03
2023-05-19T01:07:27.214Z,97231.22
2023-05-19T01:09:53.594Z,97229.41
2023-05-19T01:12:19.994Z,97224.81
2023-05-19T01:14:46.383Z,97225.44
2023-05-19T01:17:12.754Z,97224.81
2023-05-19T01:19:39.178Z,97220.84
2023-05-19T01:22:05.591Z,97229.78
2023-05-19T01:24:31.978Z,97230.41
2023-05-19T01:26:58.378Z,97229.78
2023-05-19T01:29:24.842Z,97229.63
2023-05-19T01:31:51.254Z,97237.28
2023-05-19T01:34:17.676Z,97234.38
2023-05-19T01:36:44.116Z,97232.47
2023-05-19T01:39:10.509Z,97230.22
2023-05-19T01:41:36.878Z,97225.00
2023-05-19T01:44:03.302Z,97224.00
2023-05-19T01:46:29.803Z,97221.94
2023-05-19T01:48:56.242Z,97216.78
2023-05-19T01:51:22.765Z,97216.78
2023-05-19T01:53:49.128Z,97220.16
2023-05-19T01:56:15.557Z,97223.31
2023-05-19T01:58:42.039Z,97224.13
2023-05-19T02:01:08.497Z,97217.22
2023-05-19T02:03:34.921Z,97219.47
2023-05-19T02:06:01.325Z,97219.13
2023-05-19T02:08:27.762Z,97216.19
2023-05-19T02:10:54.156Z,97212.91
2023-05-19T02:13:20.537Z,97216.63
2023-05-19T02:15:46.964Z,97209.56
2023-05-19T02:18:13.372Z,97209.00
2023-05-19T02:20:39.776Z,97212.97
2023-05-19T02:23:06.174Z,97214.16
2023-05-19T02:25:32.562Z,97215.22
2023-05-19T02:27:58.934Z,97218.13
2023-05-19T02:30:25.339Z,97213.09
2023-05-19T02:32:51.768Z,97214.75
2023-05-19T02:35:18.179Z,97226.00
2023-05-19T02:37:44.582Z,97218.34
2023-05-19T02:40:11.044Z,97212.78
2023-05-19T02:42:37.495Z,97215.94
2023-05-19T02:45:03.906Z,97214.69
2023-05-19T02:47:30.310Z,97212.22
2023-05-19T02:49:56.731Z,97210.53
2023-05-19T02:52:23.111Z,97209.63
2023-05-19T02:54:49.494Z,97211.69
2023-05-19T02:57:15.889Z,97207.69
2023-05-19T02:59:42.315Z,97207.91
2023-05-19T03:02:08.739Z,97213.09
2023-05-19T03:04:35.130Z,97215.78
2023-05-19T03:07:01.518Z,97211.81
2023-05-19T03:09:27.894Z,97214.91
2023-05-19T03:11:54.281Z,97209.50
2023-05-19T03:14:20.656Z,97204.78
2023-05-19T03:16:47.223Z,97212.66
2023-05-19T03:19:13.763Z,97202.44
2023-05-19T03:21:40.166Z,97203.28
2023-05-19T03:24:06.636Z,97207.63
2023-05-19T03:26:33.034Z,97210.56
2023-05-19T03:28:59.434Z,97209.97
2023-05-19T03:31:25.847Z,97211.00
2023-05-19T03:33:52.282Z,97203.50
2023-05-19T03:36:18.702Z,97192.09
2023-05-19T03:38:45.111Z,97201.25
2023-05-19T03:41:11.554Z,97197.09
2023-05-19T03:43:37.970Z,97194.19
2023-05-19T03:46:04.397Z,97193.38
2023-05-19T03:48:30.895Z,97197.09
2023-05-19T03:50:57.292Z,97196.88
2023-05-19T03:53:23.689Z,97191.47
2023-05-19T03:55:50.094Z,97190.44
2023-05-19T03:58:16.467Z,97196.28
2023-05-19T04:00:42.854Z,97198.78
2023-05-19T04:03:09.396Z,97205.00
2023-05-19T04:05:36.016Z,97199.59
2023-05-19T04:08:02.458Z,97202.75
2023-05-19T04:10:28.869Z,97207.09
2023-05-19T04:12:55.231Z,97204.78
2023-05-19T04:15:21.646Z,97209.75
2023-05-19T04:17:48.197Z,97209.50
2023-05-19T04:20:14.680Z,97214.28
2023-05-19T04:22:41.080Z,97208.31
2023-05-19T04:25:07.485Z,97213.94
2023-05-19T04:27:33.866Z,97215.78
2023-05-19T04:30:00.240Z,97226.59
2023-05-19T04:32:26.685Z,97217.91
2023-05-19T04:34:53.119Z,97226.00
2023-05-19T04:37:19.518Z,97219.94
2023-05-19T04:39:45.878Z,97223.63
2023-05-19T04:42:12.293Z,97229.63
2023-05-19T04:44:39.716Z,97219.66
2023-05-19T04:47:06.372Z,97220.47
2023-05-19T04:49:32.980Z,97225.28
2023-05-19T04:51:59.369Z,97229.03
2023-05-19T04:54:25.792Z,97226.94
2023-05-19T04:56:52.145Z,97227.06
2023-05-19T04:59:18.564Z,97226.63
2023-05-19T05:01:45.045Z,97235.94
2023-05-19T05:04:11.552Z,97226.19
2023-05-19T05:06:38.047Z,97231.16
2023-05-19T05:09:04.446Z,97232.56
2023-05-19T05:11:30.841Z,97233.97
2023-05-19T05:13:57.266Z,97234.59
2023-05-19T05:16:23.711Z,97237.44
2023-05-19T05:18:50.193Z,97236.38
2023-05-19T05:21:16.642Z,97232.41
2023-05-19T05:23:43.019Z,97237.13
2023-05-19T05:26:09.499Z,97236.91
2023-05-19T05:28:35.910Z,97241.88
2023-05-19T05:31:02.302Z,97230.81
2023-05-19T05:33:28.839Z,97239.03
2023-05-19T05:35:55.251Z,97237.59
2023-05-19T05:38:21.641Z,97233.22
2023-05-19T05:40:48.036Z,97227.81
2023-05-19T05:43:14.424Z,97233.22
2023-05-19T05:45:40.849Z,97227.47
2023-05-19T05:48:07.279Z,97231.72
2023-05-19T05:50:33.761Z,97221.31
2023-05-19T05:53:00.189Z,97220.47
2023-05-19T05:55:26.605Z,97220.25
2023-05-19T05:57:53.041Z,97221.78
2023-05-19T06:00:19.472Z,97216.56
2023-05-19T06:02:46.021Z,97224.47
2023-05-19T06:05:12.549Z,97229.03
2023-05-19T06:07:38.985Z,97226.56
2023-05-19T06:10:05.365Z,97231.97
2023-05-19T06:12:31.848Z,97224.66
2023-05-19T06:14:58.256Z,97226.31
2023-05-19T06:17:27.154Z,97226.72
2023-05-19T06:19:53.625Z,97228.56
2023-05-19T06:22:20.055Z,97225.22
2023-05-19T06:24:46.481Z,97225.34
2023-05-19T06:27:12.894Z,97228.44
2023-05-19T06:29:39.281Z,97224.81
2023-05-19T06:32:05.708Z,97230.63
2023-05-19T06:34:32.190Z,97221.66
2023-05-19T06:36:58.616Z,97223.56
2023-05-19T06:39:24.993Z,97217.31
2023-05-19T06:41:51.436Z,97224.53
2023-05-19T06:44:20.461Z,97229.78
2023-05-19T06:46:47.510Z,97228.13
2023-05-19T06:49:13.951Z,97224.16
2023-05-19T06:51:40.345Z,97222.28
2023-05-19T06:54:06.800Z,97218.38
2023-05-19T06:56:33.195Z,97220.91
2023-05-19T06:58:59.617Z,97218.38
2023-05-19T07:01:26.037Z,97218.72
2023-05-19T07:03:52.630Z,97222.50
2023-05-19T07:06:19.195Z,97218.44
2023-05-19T07:08:45.634Z,97225.50
2023-05-19T07:11:12.273Z,97221.59
2023-05-19T07:13:38.714Z,97215.97
2023-05-19T07:16:05.110Z,97222.81
2023-05-19T07:18:31.536Z,97216.88
2023-05-19T07:20:57.926Z,97227.38
2023-05-19T07:23:24.298Z,97221.97
2023-05-19T07:25:50.683Z,97226.94
2023-05-19T07:28:17.094Z,97218.69
2023-05-19T07:30:43.503Z,97218.22
2023-05-19T07:33:09.946Z,97223.09
2023-05-19T07:35:36.364Z,97216.66
2023-05-19T07:38:02.777Z,97218.28
2023-05-19T07:40:29.129Z,97225.22
2023-05-19T07:42:55.517Z,97215.81
2023-05-19T07:45:22.088Z,97225.00
2023-05-19T07:47:48.618Z,97217.63
2023-05-19T07:50:15.102Z,97219.94
2023-05-19T07:52:41.536Z,97213.94
2023-05-19T07:55:07.933Z,97219.34
2023-05-19T07:57:34.404Z,97213.31
2023-05-19T08:00:00.811Z,97214.75
2023-05-19T08:02:27.399Z,97210.41
2023-05-19T08:04:53.961Z,97206.88
2023-05-19T08:07:20.429Z,97206.66
2023-05-19T08:09:46.806Z,97205.44
2023-05-19T08:12:13.236Z,97204.25
2023-05-19T08:14:39.663Z,97202.22
2023-05-19T08:17:06.101Z,97199.97
2023-05-19T08:19:32.506Z,97190.94
2023-05-19T08:21:58.966Z,97188.53
2023-05-19T08:24:25.359Z,97188.63
2023-05-19T08:26:51.763Z,97189.19
2023-05-19T08:29:18.165Z,97179.84
2023-05-19T08:31:44.620Z,97175.88
2023-05-19T08:34:11.087Z,97177.59
2023-05-19T08:36:37.695Z,97172.66
2023-05-19T08:39:04.120Z,97175.69
2023-05-19T08:41:30.521Z,97177.19
2023-05-19T08:43:56.968Z,97170.00
2023-05-19T08:46:23.386Z,97173.28
2023-05-19T08:48:49.866Z,97173.19
2023-05-19T08:51:16.369Z,97169.31
2023-05-19T08:53:42.869Z,97172.38
2023-05-19T08:56:09.307Z,97170.50
2023-05-19T08:58:35.743Z,97166.38
2023-05-19T09:01:02.190Z,97165.91
2023-05-19T09:03:28.711Z,97159.34
2023-05-19T09:05:55.319Z,97158.41
2023-05-19T09:08:21.788Z,97162.53
2023-05-19T09:10:48.245Z,97157.44
2023-05-19T09:13:14.681Z,97154.97
2023-05-19T09:15:41.152Z,97150.75
2023-05-19T09:18:07.538Z,97158.41
2023-05-19T09:20:33.943Z,97156.91
2023-05-19T09:23:00.425Z,97164.16
2023-05-19T09:25:26.827Z,97163.50
2023-05-19T09:27:53.269Z,97157.41
2023-05-19T09:30:19.714Z,97159.78
2023-05-19T09:32:48.416Z,97152.19
2023-05-19T09:35:14.870Z,97152.13
2023-05-19T09:37:41.269Z,97155.06
2023-05-19T09:40:07.686Z,97143.78
2023-05-19T09:42:34.088Z,97148.63
2023-05-19T09:45:00.512Z,97148.28
2023-05-19T09:47:27.010Z,97136.88
2023-05-19T09:49:53.481Z,97132.63
2023-05-19T09:52:19.919Z,97130.88
2023-05-19T09:54:46.349Z,97131.19
2023-05-19T09:57:12.729Z,97122.34
2023-05-19T09:59:39.119Z,97122.84
2023-05-19T10:02:05.578Z,97116.22
2023-05-19T10:04:32.206Z,97117.91
2023-05-19T10:06:58.678Z,97119.91
2023-05-19T10:09:25.149Z,97116.94
2023-05-19T10:11:51.592Z,97128.03
2023-05-19T10:14:18.049Z,97124.84
2023-05-19T10:16:44.503Z,97124.09
2023-05-19T10:19:10.968Z,97127.75
2023-05-19T10:21:37.355Z,97133.88
2023-05-19T10:24:03.740Z,97120.44
2023-05-19T10:26:30.126Z,97120.78
2023-05-19T10:28:56.494Z,97116.41
2023-05-19T10:31:22.894Z,97111.88
2023-05-19T10:33:49.302Z,97106.75
2023-05-19T10:36:15.716Z,97117.28
2023-05-19T10:38:42.129Z,97104.75
2023-05-19T10:41:09.005Z,97099.88
2023-05-19T10:43:35.427Z,97100.69
2023-05-19T10:46:01.931Z,97097.41
2023-05-19T10:48:28.298Z,97097.00
2023-05-19T10:50:54.750Z,97099.97
2023-05-19T10:53:21.175Z,97096.44
2023-05-19T10:55:47.616Z,97091.81
2023-05-19T10:58:14.021Z,97096.44
2023-05-19T11:00:40.439Z,97097.91
2023-05-19T11:03:06.945Z,97099.84
2023-05-19T11:05:33.619Z,97098.94
2023-05-19T11:08:00.168Z,97103.84
2023-05-19T11:10:26.534Z,97101.84
2023-05-19T11:12:52.913Z,97103.31
2023-05-19T11:15:19.333Z,97097.06
2023-05-19T11:17:45.762Z,97093.44
2023-05-19T11:20:12.170Z,97094.66
2023-05-19T11:22:38.619Z,97098.78
2023-05-19T11:25:05.040Z,97093.13
2023-05-19T11:27:31.751Z,97092.50
2023-05-19T11:29:58.306Z,97086.22
2023-05-19T11:32:24.829Z,97087.22
2023-05-19T11:34:51.314Z,97088.13
2023-05-19T11:37:17.718Z,97087.47
2023-05-19T11:39:44.093Z,97085.53
2023-05-19T11:42:10.532Z,97079.44
2023-05-19T11:44:36.992Z,97072.88
2023-05-19T11:47:03.387Z,97080.59
2023-05-19T11:49:29.804Z,97074.25
2023-05-19T11:51:56.278Z,97075.94
2023-05-19T11:54:22.735Z,97070.91
2023-05-19T11:56:49.167Z,97065.97
2023-05-19T11:59:15.559Z,97071.25
2023-05-19T12:01:41.964Z,97065.22
2023-05-19T12:04:08.366Z,97060.94
2023-05-19T12:06:34.813Z,97055.84
2023-05-19T12:09:01.228Z,97056.09
2023-05-19T12:11:27.703Z,97052.09
2023-05-19T12:13:54.135Z,97050.69
2023-05-19T12:16:20.578Z,97040.63
2023-05-19T12:18:47.046Z,97042.28
2023-05-19T12:21:13.556Z,97050.59
2023-05-19T12:23:39.930Z,97036.03
2023-05-19T12:26:06.370Z,97041.13
2023-05-19T12:28:32.860Z,97045.06
2023-05-19T12:30:59.310Z,97033.22
2023-05-19T12:33:25.850Z,97035.19
2023-05-19T12:35:52.360Z,97034.03
2023-05-19T12:38:18.819Z,97037.47
2023-05-19T12:40:45.210Z,97041.91
2023-05-19T12:43:11.605Z,97040.97
2023-05-19T12:45:38.035Z,97041.06
2023-05-19T12:48:04.634Z,97043.66
2023-05-19T12:50:31.372Z,97044.66
2023-05-19T12:52:58.119Z,97037.88
2023-05-19T12:55:24.522Z,97034.75
2023-05-19T12:57:50.959Z,97037.03
2023-05-19T13:00:17.436Z,97039.00
2023-05-19T13:02:43.929Z,97037.03
2023-05-19T13:05:10.425Z,97033.88
2023-05-19T13:07:36.838Z,97027.44
2023-05-19T13:10:03.321Z,97025.22
2023-05-19T13:12:29.760Z,97027.25
2023-05-19T13:14:56.155Z,97017.69
2023-05-19T13:17:22.580Z,97019.34
2023-05-19T13:19:49.013Z,97005.78
2023-05-19T13:22:15.494Z,97010.69
2023-05-19T13:24:41.920Z,97010.78
2023-05-19T13:27:08.329Z,97009.19
2023-05-19T13:29:34.771Z,97011.31
2023-05-19T13:32:01.627Z,97012.69
2023-05-19T13:34:28.136Z,97009.97
2023-05-19T13:36:54.534Z,97011.28
2023-05-19T13:39:23.454Z,97014.63
2023-05-19T13:41:49.952Z,97015.53
2023-05-19T13:44:16.502Z,97015.09
2023-05-19T13:46:45.417Z,97016.22
2023-05-19T13:49:12.938Z,97018.94
2023-05-19T13:51:39.351Z,97015.16
2023-05-19T13:54:05.857Z,97015.09
2023-05-19T13:56:32.310Z,97016.13
2023-05-19T13:58:58.754Z,97008.94
2023-05-19T14:01:25.168Z,97005.59
2023-05-19T14:03:51.896Z,97010.69
2023-05-19T14:06:18.456Z,97005.22
2023-05-19T14:08:44.900Z,97000.03
2023-05-19T14:11:11.343Z,97006.00
2023-05-19T14:13:41.106Z,97009.19
2023-05-19T14:16:09.812Z,97006.19
2023-05-19T14:18:36.402Z,97004.53
2023-05-19T14:21:02.859Z,97003.72
2023-05-19T14:23:29.321Z,97002.00
2023-05-19T14:25:55.748Z,96996.81
2023-05-19T14:28:22.194Z,97005.81
2023-05-19T14:30:48.891Z,97001.69
2023-05-19T14:33:15.403Z,96995.00
2023-05-19T14:35:41.935Z,96999.09
2023-05-19T14:38:10.796Z,96993.06
2023-05-19T14:40:37.213Z,96999.00
2023-05-19T14:43:03.656Z,96996.81
2023-05-19T14:45:30.071Z,96995.22
2023-05-19T14:47:56.547Z,97001.81
2023-05-19T14:50:22.980Z,96997.19
2023-05-19T14:52:49.482Z,97001.22
2023-05-19T14:55:15.954Z,97006.16
2023-05-19T14:57:42.377Z,97003.94
2023-05-19T15:00:08.872Z,96999.25
2023-05-19T15:02:35.415Z,96996.00
2023-05-19T15:05:01.990Z,96998.47
2023-05-19T15:07:28.461Z,96998.94
2023-05-19T15:09:54.926Z,96993.19
2023-05-19T15:12:21.485Z,96996.69
2023-05-19T15:14:47.893Z,96998.81
2023-05-19T15:17:14.486Z,96998.75
2023-05-19T15:19:41.027Z,97002.22
2023-05-19T15:22:07.471Z,96995.06
2023-05-19T15:24:33.968Z,96999.09
2023-05-19T15:27:00.386Z,96996.09
2023-05-19T15:29:26.811Z,96993.03
2023-05-19T15:31:53.227Z,96991.97
2023-05-19T15:34:19.806Z,97002.31
2023-05-19T15:36:46.288Z,96999.09
2023-05-19T15:39:12.746Z,96999.44
2023-05-19T15:41:39.294Z,96997.28
2023-05-19T15:44:05.735Z,96993.50
2023-05-19T15:46:32.148Z,96993.81
2023-05-19T15:48:58.600Z,96994.25
2023-05-19T15:51:25.082Z,96997.28
2023-05-19T15:53:51.474Z,96987.25
2023-05-19T15:56:17.910Z,96991.72
2023-05-19T15:58:44.374Z,96990.22
2023-05-19T16:01:10.798Z,96987.50
2023-05-19T16:03:37.301Z,96990.53
2023-05-19T16:06:03.849Z,96992.22
2023-05-19T16:08:30.286Z,96991.16
2023-05-19T16:10:56.674Z,96992.22
2023-05-19T16:13:23.073Z,96996.50
2023-05-19T16:15:49.531Z,97009.97
2023-05-19T16:18:16.020Z,97003.63
2023-05-19T16:20:42.498Z,97007.19
2023-05-19T16:23:09.096Z,97005.63
2023-05-19T16:25:35.520Z,97003.47
2023-05-19T16:28:01.932Z,97005.44
2023-05-19T16:30:28.367Z,97004.38
2023-05-19T16:32:54.828Z,96992.19
2023-05-19T16:35:21.392Z,96992.47
2023-05-19T16:37:47.841Z,96989.50
2023-05-19T16:40:14.242Z,96987.13
2023-05-19T16:42:40.621Z,96988.53
2023-05-19T16:45:07.039Z,96987.44
2023-05-19T16:47:33.523Z,96982.59
2023-05-19T16:49:59.982Z,96986.09
2023-05-19T16:52:26.409Z,96977.41
2023-05-19T16:54:52.827Z,96977.66
2023-05-19T16:57:19.416Z,96972.16
2023-05-19T16:59:45.807Z,96975.94
2023-05-19T17:02:12.241Z,96970.69
2023-05-19T17:04:38.741Z,96976.88
2023-05-19T17:07:05.181Z,96967.59
2023-05-19T17:09:31.685Z,96972.44
2023-05-19T17:11:58.112Z,96970.75
2023-05-19T17:14:24.556Z,96965.22
2023-05-19T17:16:51.033Z,96953.22
2023-05-19T17:19:17.716Z,96967.31
2023-05-19T17:21:44.188Z,96966.16
2023-05-19T17:24:10.702Z,96967.81
2023-05-19T17:26:37.129Z,96969.13
2023-05-19T17:29:03.591Z,96969.97
2023-05-19T17:31:30.055Z,96962.03
2023-05-19T17:33:56.510Z,96968.22
2023-05-19T17:36:22.911Z,96963.28
2023-05-19T17:38:49.361Z,96959.53
2023-05-19T17:41:15.900Z,96964.94
2023-05-19T17:43:42.370Z,96972.50
2023-05-19T17:46:08.855Z,96967.28
2023-05-19T17:48:35.303Z,96972.94
2023-05-19T17:51:02.720Z,96969.38
2023-05-19T17:53:30.346Z,96967.28
2023-05-19T17:55:56.867Z,96957.97
2023-05-19T17:58:23.339Z,96957.06
2023-05-19T18:00:49.761Z,96958.34
2023-05-19T18:03:16.347Z,96960.25
2023-05-19T18:05:42.894Z,96968.06
2023-05-19T18:08:09.548Z,96967.75
2023-05-19T18:10:36.125Z,96961.72
2023-05-19T18:13:02.553Z,96968.66
2023-05-19T18:15:29.007Z,96965.59
2023-05-19T18:17:55.547Z,96962.31
2023-05-19T18:20:21.991Z,96961.47
2023-05-19T18:22:48.438Z,96962.22
2023-05-19T18:25:14.888Z,96954.25
2023-05-19T18:27:41.377Z,96962.31
2023-05-19T18:30:07.812Z,96965.16
2023-05-19T18:32:34.319Z,96961.66
2023-05-19T18:35:00.784Z,96969.94
2023-05-19T18:37:27.221Z,96962.53
2023-05-19T18:39:53.671Z,96953.75
2023-05-19T18:42:20.077Z,96959.53
2023-05-19T18:44:46.512Z,96966.66
2023-05-19T18:47:12.946Z,96961.72
2023-05-19T18:49:39.376Z,96958.34
2023-05-19T18:52:05.853Z,96966.81
2023-05-19T18:54:32.289Z,96960.03
2023-05-19T18:56:58.768Z,96964.59
2023-05-19T18:59:25.284Z,96973.31
2023-05-19T19:01:51.702Z,96961.19
2023-05-19T19:04:18.226Z,96962.47
2023-05-19T19:06:44.676Z,96958.38
2023-05-19T19:09:11.074Z,96960.03
2023-05-19T19:11:37.489Z,96964.28
2023-05-19T19:14:04.014Z,96978.88
2023-05-19T19:16:30.501Z,96970.75
2023-05-19T19:18:56.999Z,96983.81
2023-05-19T19:21:23.573Z,96990.41
2023-05-19T19:23:50.060Z,96999.13
2023-05-19T19:26:16.570Z,96993.00
2023-05-19T19:28:43.178Z,96998.19
2023-05-19T19:31:09.635Z,97003.94
2023-05-19T19:33:36.146Z,96991.22
2023-05-19T19:36:03.889Z,96992.53
2023-05-19T19:38:30.321Z,96997.47
2023-05-19T19:40:56.753Z,97000.41
2023-05-19T19:43:23.165Z,96998.03
2023-05-19T19:45:49.598Z,97002.88
2023-05-19T19:48:16.010Z,96995.81
2023-05-19T19:50:42.440Z,96996.06
2023-05-19T19:53:08.967Z,96996.88
2023-05-19T19:55:35.467Z,96995.94
2023-05-19T19:58:01.896Z,96993.84
2023-05-19T20:00:28.347Z,96992.19
2023-05-19T20:03:04.955Z,96993.22
2023-05-19T20:05:32.482Z,96994.88
2023-05-19T20:07:59.024Z,96993.22
2023-05-19T20:10:25.454Z,96992.78
2023-05-19T20:12:52.145Z,96990.94
2023-05-19T20:15:18.600Z,96996.22
2023-05-19T20:17:45.062Z,96993.03
2023-05-19T20:20:11.524Z,96997.53
2023-05-19T20:22:37.968Z,96998.59
2023-05-19T20:25:04.391Z,96994.72
2023-05-19T20:27:30.878Z,96993.88
2023-05-19T20:29:57.311Z,96998.97
2023-05-19T20:32:23.761Z,96999.06
2023-05-19T20:34:50.399Z,97000.97
2023-05-19T20:37:16.807Z,97000.34
2023-05-19T20:39:43.299Z,96999.63
2023-05-19T20:42:09.700Z,96997.28
2023-05-19T20:44:36.129Z,96997.84
2023-05-19T20:47:02.608Z,96993.22
2023-05-19T20:49:29.046Z,96997.72
2023-05-19T20:51:55.515Z,97002.00
2023-05-19T20:54:22.052Z,97003.06
2023-05-19T20:56:48.686Z,97008.47
2023-05-19T20:59:15.108Z,97006.34
2023-05-19T21:01:41.606Z,97003.63
2023-05-19T21:04:08.261Z,97003.63
2023-05-19T21:06:34.768Z,97001.16
2023-05-19T21:09:01.250Z,97006.25
2023-05-19T21:11:27.726Z,97003.44
2023-05-19T21:13:54.145Z,97009.91
2023-05-19T21:16:20.710Z,96999.53
2023-05-19T21:18:47.274Z,97002.25
2023-05-19T21:21:13.765Z,97011.09
2023-05-19T21:23:40.168Z,97006.97
2023-05-19T21:26:06.730Z,97002.03
2023-05-19T21:28:33.179Z,97003.69
2023-05-19T21:30:59.735Z,96999.91
2023-05-19T21:33:26.206Z,96993.91
2023-05-19T21:35:52.653Z,96992.03
2023-05-19T21:38:24.345Z,96994.41
2023-05-19T21:40:50.928Z,96985.78
2023-05-19T21:43:17.371Z,96980.16
2023-05-19T21:45:43.825Z,96977.78
2023-05-19T21:48:10.346Z,96980.97
2023-05-19T21:50:36.786Z,96980.16
2023-05-19T21:53:03.297Z,96975.34
2023-05-19T21:55:29.852Z,96970.06
2023-05-19T21:57:56.295Z,96972.06
2023-05-19T22:00:22.716Z,96974.53
2023-05-19T22:02:49.273Z,96978.31
2023-05-19T22:05:15.791Z,96978.09
2023-05-19T22:07:42.241Z,96980.31
2023-05-19T22:10:08.682Z,96988.53
2023-05-19T22:12:35.190Z,96984.41
2023-05-19T22:15:01.679Z,96980.41
2023-05-19T22:17:28.249Z,96984.75
2023-05-19T22:19:54.800Z,96975.25
2023-05-19T22:22:21.364Z,96983.47
2023-05-19T22:24:47.800Z,96987.47
2023-05-19T22:27:14.240Z,96979.72
2023-05-19T22:29:40.704Z,96982.06
2023-05-19T22:32:07.190Z,96979.97
2023-05-19T22:34:33.681Z,96969.47
2023-05-19T22:37:00.117Z,96977.47
2023-05-19T22:39:26.576Z,96972.06
2023-05-19T22:41:52.972Z,96980.41
2023-05-19T22:44:19.407Z,96984.97
2023-05-19T22:46:45.829Z,96984.06
2023-05-19T22:49:12.240Z,96991.13
2023-05-19T22:51:38.670Z,96983.72
2023-05-19T22:54:05.093Z,96987.47
2023-05-19T22:56:31.495Z,96981.00
2023-05-19T22:58:57.956Z,96975.34
2023-05-19T23:01:24.678Z,96974.06
2023-05-19T23:03:51.187Z,96973.22
2023-05-19T23:06:17.604Z,96968.75
2023-05-19T23:08:44.829Z,96963.03
2023-05-19T23:11:12.023Z,96965.94
2023-05-19T23:13:38.441Z,96966.31
2023-05-19T23:16:04.894Z,96976.19
2023-05-19T23:18:31.304Z,96963.94
2023-05-19T23:20:57.737Z,96967.13
2023-05-19T23:23:24.212Z,96959.50
2023-05-19T23:25:50.689Z,96960.91
2023-05-19T23:28:17.144Z,96955.41
2023-05-19T23:30:43.548Z,96952.69
2023-05-19T23:33:10.047Z,96953.03
2023-05-19T23:35:36.692Z,96962.88
2023-05-19T23:38:03.154Z,96960.88
2023-05-19T23:40:29.631Z,96958.41
2023-05-19T23:42:56.096Z,96966.06
2023-05-19T23:45:22.505Z,96958.06
2023-05-19T23:47:48.975Z,96968.88
2023-05-19T23:50:15.456Z,96960.78
2023-05-19T23:52:41.902Z,96961.03
2023-05-19T23:55:08.530Z,96957.16
2023-05-19T23:57:34.998Z,96955.38
